White Hall, Texas
Current Conditions -  °F | °C
As of 12:55 PM on Friday 31 Oct 2014 (Local Time) from K11R Reporting Station
Clear Clear  
Wind Chill: 75°   Ceiling: Unl
Heat Index: 75°   Visibility: 10mi
Dew Point: 42°   Wind: 16mph
Humidity: 31%   Direction: 350°N
Pressure: 30.24"   Gusts: 20mph
Location:  30.367°N, 96.0045°W
Report Text: K11R 311755Z AUTO 35014G17KT 10SM CLR 24/06 A3024 RMK AO2 T02400057 10240 20145
Loading
Personal Weather Stations






























Interactive Weather Map New forecast layout! Learn more

10-Day Weather Forecast

Advertisements
Track Severe Weather on mobile